Time;durP1;ratioP1;P1;durP2;ratioP2;P2;SDS_P1;SDS_P2;PMS_P1;PMS_P2;Temp;Humidity;BMP_temperature;BMP_pressure;BME280_temperature;BME280_humidity;BME280_pressure;Samples;Min_cycle;Max_cycle;Signal;HPM_P1;HPM_P2
2021/08/03 00:00:27;;;;;;;5.33;3.80;;;10.00;99.90;;;;;;4872438;28;20217;-72
2021/08/03 00:02:52;;;;;;;1.50;1.37;;;10.40;99.90;;;;;;4873725;28;20182;-72
2021/08/03 00:05:20;;;;;;;2.17;1.70;;;10.30;99.90;;;;;;4872562;28;20599;-74
2021/08/03 00:07:45;;;;;;;1.20;1.00;;;10.30;99.90;;;;;;4873476;28;20702;-72
2021/08/03 00:10:08;;;;;;;1.20;1.10;;;10.40;99.90;;;;;;4873840;28;20239;-74
2021/08/03 00:12:32;;;;;;;1.43;1.13;;;10.30;99.90;;;;;;4868574;28;20239;-72
2021/08/03 00:14:55;;;;;;;0.93;0.83;;;10.20;99.90;;;;;;4876237;28;20634;-74
2021/08/03 00:17:20;;;;;;;2.30;1.63;;;10.20;99.90;;;;;;4876663;28;20193;-73
2021/08/03 00:19:43;;;;;;;1.30;1.00;;;;;;;;;;4876913;28;20198;-72
2021/08/03 00:22:06;;;;;;;1.17;1.07;;;;;;;;;;4877237;28;20272;-71
2021/08/03 00:24:29;;;;;;;1.83;1.57;;;;;;;;;;4876330;28;20224;-72
2021/08/03 00:26:52;;;;;;;1.47;1.23;;;10.00;99.90;;;;;;4876840;28;20193;-71
2021/08/03 00:29:16;;;;;;;1.47;1.17;;;9.90;99.90;;;;;;4869437;28;20198;-72
2021/08/03 00:31:39;;;;;;;1.00;0.90;;;;;;;;;;4876371;28;20232;-72
2021/08/03 00:34:03;;;;;;;1.50;1.30;;;;;;;;;;4858806;28;20198;-72
2021/08/03 00:36:27;;;;;;;1.33;1.23;;;10.00;99.90;;;;;;4857218;28;20256;-70
2021/08/03 00:38:51;;;;;;;1.47;1.20;;;;;;;;;;4876606;28;20193;-76
2021/08/03 00:41:16;;;;;;;2.93;2.33;;;9.90;99.90;;;;;;4875610;28;20947;-74
2021/08/03 00:43:40;;;;;;;1.20;1.00;;;;;;;;;;4869837;28;20276;-72
2021/08/03 00:46:07;;;;;;;1.60;1.37;;;10.00;99.90;;;;;;4858047;28;20617;-74
2021/08/03 00:48:30;;;;;;;1.00;0.90;;;;;;;;;;4857294;28;20916;-71
2021/08/03 00:50:54;;;;;;;0.83;0.80;;;;;;;;;;4877323;28;20196;-75
2021/08/03 00:53:17;;;;;;;1.80;1.40;;;;;;;;;;4876646;28;20262;-75
2021/08/03 00:55:42;;;;;;;1.43;1.10;;;9.90;99.90;;;;;;4877248;28;20274;-75
2021/08/03 00:58:05;;;;;;;1.30;1.10;;;;;;;;;;4857475;28;20652;-73
2021/08/03 01:00:28;;;;;;;5.17;3.93;;;;;;;;;;4856417;28;20229;-72
2021/08/03 01:02:53;;;;;;;1.10;1.00;;;9.70;99.90;;;;;;4858476;28;20263;-76
2021/08/03 01:05:16;;;;;;;1.63;1.33;;;9.70;99.90;;;;;;4857749;28;20237;-73
2021/08/03 01:07:45;;;;;;;1.20;1.10;;;9.80;99.90;;;;;;4856694;28;20198;-75
2021/08/03 01:10:24;;;;;;;2.40;1.90;;;9.80;99.90;;;;;;4876571;28;20189;-75
2021/08/03 01:12:59;;;;;;;1.10;1.00;;;9.80;99.90;;;;;;4861916;28;20620;-73
2021/08/03 01:15:24;;;;;;;1.20;1.10;;;9.80;99.90;;;;;;4857136;28;20789;-74
2021/08/03 01:17:54;;;;;;;1.10;1.00;;;9.90;99.90;;;;;;4857290;28;20244;-75
2021/08/03 01:20:25;;;;;;;1.33;1.23;;;9.80;99.90;;;;;;4856712;28;20280;-72
2021/08/03 01:23:39;;;;;;;0.80;0.80;;;9.80;99.90;;;;;;4857979;28;20202;-72
2021/08/03 01:26:16;;;;;;;0.80;0.80;;;9.80;99.90;;;;;;4888085;28;20204;-73
2021/08/03 01:28:48;;;;;;;1.30;1.10;;;9.90;99.90;;;;;;4872448;28;20240;-74
2021/08/03 01:31:20;;;;;;;1.00;0.93;;;9.90;99.90;;;;;;4857063;28;20260;-73
2021/08/03 01:33:48;;;;;;;1.23;1.13;;;10.00;99.90;;;;;;4876886;28;20181;-75
2021/08/03 01:36:12;;;;;;;0.90;0.87;;;10.10;99.90;;;;;;4866763;28;20646;-73
2021/08/03 01:38:38;;;;;;;1.03;0.90;;;10.10;99.90;;;;;;4875193;28;20227;-74
2021/08/03 01:41:04;;;;;;;1.33;1.17;;;10.10;99.90;;;;;;4875037;28;20201;-78
2021/08/03 01:43:30;;;;;;;1.27;1.17;;;10.20;99.90;;;;;;4856712;28;20248;-73
2021/08/03 01:45:56;;;;;;;0.80;0.80;;;10.20;99.90;;;;;;4857940;28;20251;-73
2021/08/03 01:48:21;;;;;;;1.40;1.27;;;;;;;;;;4864475;28;20236;-72
2021/08/03 01:50:49;;;;;;;1.20;1.10;;;10.30;99.90;;;;;;4857306;28;20202;-72
2021/08/03 01:53:12;;;;;;;0.80;0.73;;;10.30;99.90;;;;;;4875047;28;20193;-71
2021/08/03 01:55:35;;;;;;;0.90;0.90;;;;;;;;;;4841484;28;20195;-72
2021/08/03 01:58:06;;;;;;;1.10;1.00;;;10.40;99.90;;;;;;4872772;28;20201;-76
2021/08/03 02:00:45;;;;;;;2.23;1.93;;;;;;;;;;4867663;28;20693;-71
2021/08/03 02:03:14;;;;;;;1.27;1.10;;;10.40;99.90;;;;;;4887562;28;20735;-72
2021/08/03 02:05:38;;;;;;;1.00;0.90;;;10.40;99.90;;;;;;4875415;28;20224;-72
2021/08/03 02:08:07;;;;;;;1.13;1.03;;;10.30;99.90;;;;;;4874765;28;20198;-72
2021/08/03 02:10:31;;;;;;;1.00;0.90;;;10.30;99.90;;;;;;4857261;28;20309;-72
2021/08/03 02:12:54;;;;;;;1.10;1.00;;;;;;;;;;4873932;28;20193;-72
2021/08/03 02:15:16;;;;;;;1.20;1.10;;;;;;;;;;4875032;28;20709;-72
2021/08/03 02:17:39;;;;;;;1.00;0.90;;;;;;;;;;4874959;28;20189;-72
2021/08/03 02:20:14;;;;;;;1.10;1.03;;;10.10;99.90;;;;;;4856224;28;20247;-73
2021/08/03 02:22:45;;;;;;;1.23;1.13;;;10.10;99.90;;;;;;4857309;28;20202;-72
2021/08/03 02:25:16;;;;;;;1.30;1.20;;;10.00;99.90;;;;;;4855664;28;20202;-72
2021/08/03 02:27:39;;;;;;;0.87;0.83;;;;;;;;;;4874290;28;20239;-72
2021/08/03 02:30:02;;;;;;;1.17;1.07;;;;;;;;;;4873018;28;20243;-74
2021/08/03 02:32:39;;;;;;;1.33;1.07;;;10.10;99.90;;;;;;4874809;28;20181;-79
2021/08/03 02:35:08;;;;;;;1.23;1.00;;;10.00;99.90;;;;;;4856112;28;20236;-72
2021/08/03 02:37:35;;;;;;;1.10;1.00;;;10.00;99.90;;;;;;4848399;28;20368;-72
2021/08/03 02:40:03;;;;;;;0.80;0.80;;;10.00;99.90;;;;;;4862228;28;20270;-74
2021/08/03 02:42:28;;;;;;;1.20;1.10;;;9.90;99.90;;;;;;4873925;28;20250;-72
2021/08/03 02:44:54;;;;;;;1.20;1.10;;;9.90;99.90;;;;;;4874642;28;20243;-74
2021/08/03 02:47:25;;;;;;;1.40;1.30;;;9.80;99.90;;;;;;4861837;28;20553;-72
2021/08/03 02:49:52;;;;;;;1.17;1.07;;;9.80;99.90;;;;;;4874075;28;20181;-74
2021/08/03 02:52:15;;;;;;;1.73;1.60;;;;;;;;;;4873613;28;20189;-74
2021/08/03 02:54:40;;;;;;;0.80;0.80;;;9.80;99.90;;;;;;4873736;28;20189;-73
2021/08/03 02:57:10;;;;;;;1.07;1.00;;;9.80;99.90;;;;;;4873000;28;20660;-74
2021/08/03 02:59:38;;;;;;;0.80;0.80;;;9.70;99.90;;;;;;4857000;28;20206;-75
2021/08/03 03:02:04;;;;;;;1.20;1.10;;;9.70;99.90;;;;;;4867622;28;20284;-78
2021/08/03 03:04:33;;;;;;;1.20;1.10;;;9.60;99.90;;;;;;4856555;28;20210;-75
2021/08/03 03:07:08;;;;;;;1.17;1.07;;;9.60;99.90;;;;;;4872874;28;20193;-72
2021/08/03 03:09:35;;;;;;;0.80;0.80;;;9.50;99.90;;;;;;4854071;28;20315;-72
2021/08/03 03:12:00;;;;;;;1.23;0.90;;;9.50;99.90;;;;;;4852688;28;20201;-73
2021/08/03 03:14:25;;;;;;;1.03;0.93;;;9.50;99.90;;;;;;4863605;28;20233;-72
2021/08/03 03:16:51;;;;;;;0.80;0.80;;;9.50;99.90;;;;;;4873848;28;20239;-74
2021/08/03 03:19:16;;;;;;;1.37;1.20;;;9.60;99.90;;;;;;4855251;28;20202;-73
2021/08/03 03:21:42;;;;;;;0.83;0.77;;;9.60;99.90;;;;;;4873995;28;20213;-72
2021/08/03 03:24:06;;;;;;;0.80;0.80;;;9.50;99.90;;;;;;4864569;28;20213;-73
2021/08/03 03:26:33;;;;;;;1.23;1.13;;;9.50;99.90;;;;;;4873826;28;20550;-73
2021/08/03 03:29:02;;;;;;;0.93;0.90;;;9.30;99.90;;;;;;4886891;28;20669;-74
2021/08/03 03:31:29;;;;;;;1.40;1.30;;;9.40;99.90;;;;;;4854869;28;20742;-72
2021/08/03 03:33:55;;;;;;;0.70;0.70;;;9.40;99.90;;;;;;4856973;28;20205;-74
2021/08/03 03:36:22;;;;;;;1.30;1.03;;;9.50;99.90;;;;;;4874404;28;20247;-72
2021/08/03 03:38:46;;;;;;;0.77;0.77;;;9.50;99.90;;;;;;4855640;28;20602;-73
2021/08/03 03:41:11;;;;;;;0.93;0.87;;;;;;;;;;4859607;28;20262;-73
2021/08/03 03:43:34;;;;;;;0.70;0.70;;;;;;;;;;4856083;28;20209;-73
2021/08/03 03:46:04;;;;;;;0.87;0.87;;;9.50;99.90;;;;;;4856586;28;20647;-73
2021/08/03 03:48:31;;;;;;;1.00;1.00;;;9.60;99.90;;;;;;4857628;28;20271;-73
2021/08/03 03:50:59;;;;;;;0.50;0.50;;;9.60;99.90;;;;;;4859529;28;20205;-73
2021/08/03 03:53:26;;;;;;;1.03;0.93;;;9.60;99.90;;;;;;4858772;28;20296;-72
2021/08/03 03:55:51;;;;;;;0.70;0.70;;;9.60;99.90;;;;;;4878611;28;20177;-72
2021/08/03 03:58:16;;;;;;;0.93;0.87;;;9.60;99.90;;;;;;4877405;28;20659;-75
2021/08/03 04:00:39;;;;;;;3.53;3.17;;;9.60;99.90;;;;;;4871939;28;20205;-72
2021/08/03 04:03:06;;;;;;;0.57;0.57;;;9.60;99.90;;;;;;4858882;28;20297;-74
2021/08/03 04:05:30;;;;;;;0.83;0.83;;;9.60;99.90;;;;;;4878026;28;20276;-73
2021/08/03 04:07:54;;;;;;;0.70;0.70;;;;;;;;;;4858571;28;20544;-73
2021/08/03 04:10:30;;;;;;;0.90;0.90;;;9.60;99.90;;;;;;4859505;28;20198;-72
2021/08/03 04:13:13;;;;;;;1.03;0.97;;;;;;;;;;4875805;28;20196;-72
2021/08/03 04:15:57;;;;;;;0.80;0.77;;;;;;;;;;4863075;28;20528;-73
2021/08/03 04:18:41;;;;;;;0.60;0.60;;;9.70;99.90;;;;;;4862057;28;20173;-73
2021/08/03 04:21:24;;;;;;;0.90;0.90;;;;;;;;;;4877803;28;20225;-73
2021/08/03 04:24:07;;;;;;;0.90;0.90;;;;;;;;;;4876796;28;20189;-73
2021/08/03 04:26:50;;;;;;;0.80;0.80;;;;;;;;;;4871758;28;20973;-73
2021/08/03 04:29:33;;;;;;;0.93;0.90;;;;;;;;;;4870605;28;20189;-72
2021/08/03 04:32:16;;;;;;;1.00;0.90;;;;;;;;;;4876432;28;20188;-72
2021/08/03 04:34:59;;;;;;;0.50;0.50;;;10.20;99.90;;;;;;4875868;28;20291;-73
2021/08/03 04:37:29;;;;;;;0.60;0.60;;;;;;;;;;4873688;28;20174;-75
2021/08/03 04:39:52;;;;;;;0.67;0.67;;;;;;;;;;4876005;28;20185;-73
2021/08/03 04:42:14;;;;;;;1.00;0.90;;;;;;;;;;4876653;28;20667;-74
2021/08/03 04:44:37;;;;;;;1.53;1.10;;;;;;;;;;4875876;28;20186;-76
2021/08/03 04:47:00;;;;;;;0.73;0.70;;;;;;;;;;4875384;28;20243;-74
2021/08/03 04:49:23;;;;;;;1.23;1.13;;;;;;;;;;4857625;28;20249;-73
2021/08/03 04:51:47;;;;;;;0.93;0.90;;;10.70;99.90;;;;;;4858911;28;20194;-76
2021/08/03 04:54:10;;;;;;;0.80;0.73;;;;;;;;;;4876277;28;20231;-75
2021/08/03 04:56:33;;;;;;;1.60;1.40;;;;;;;;;;4874814;28;20189;-72
2021/08/03 04:58:56;;;;;;;1.00;0.70;;;;;;;;;;4857138;28;20206;-73
2021/08/03 05:01:19;;;;;;;1.23;1.13;;;;;;;;;;4874535;28;20590;-72
2021/08/03 05:03:41;;;;;;;0.80;0.80;;;;;;;;;;4877636;28;20189;-72
2021/08/03 05:06:04;;;;;;;1.17;1.07;;;;;;;;;;4857607;28;20186;-72
2021/08/03 05:08:28;;;;;;;0.87;0.87;;;11.30;99.90;;;;;;4857494;28;20260;-76
2021/08/03 05:10:51;;;;;;;0.83;0.80;;;;;;;;;;4876614;28;20243;-72
2021/08/03 05:13:13;;;;;;;1.47;1.17;;;;;;;;;;4857282;28;20259;-73
2021/08/03 05:15:36;;;;;;;0.83;0.77;;;;;;;;;;4876566;28;20186;-73
2021/08/03 05:18:00;;;;;;;0.90;0.87;;;;;;;;;;4856612;28;20202;-73
2021/08/03 05:20:23;;;;;;;1.47;1.27;;;;;;;;;;4876177;28;20194;-75
2021/08/03 05:22:46;;;;;;;0.73;0.73;;;12.50;99.90;;;;;;4875691;28;20213;-73
2021/08/03 05:25:11;;;;;;;2.03;1.23;;;12.60;99.90;;;;;;4876125;28;20239;-74
2021/08/03 05:27:34;;;;;;;1.10;1.00;;;;;;;;;;4875101;28;20197;-72
2021/08/03 05:29:57;;;;;;;0.90;0.77;;;;;;;;;;4875977;28;20189;-74
2021/08/03 05:32:20;;;;;;;1.33;1.23;;;;;;;;;;4875755;28;20193;-75
2021/08/03 05:34:42;;;;;;;1.10;1.00;;;;;;;;;;4858106;28;20257;-73
2021/08/03 05:37:06;;;;;;;1.23;1.00;;;13.20;99.90;;;;;;4875145;28;20189;-74
2021/08/03 05:39:30;;;;;;;1.40;1.30;;;;;;;;;;4874387;28;20177;-73
2021/08/03 05:41:54;;;;;;;0.80;0.80;;;13.20;99.90;;;;;;4875908;28;20213;-74
2021/08/03 05:44:17;;;;;;;1.20;1.10;;;;;;;;;;4875685;28;20578;-74
2021/08/03 05:46:40;;;;;;;1.80;1.57;;;;;;;;;;4875027;28;20185;-78
2021/08/03 05:49:03;;;;;;;1.20;1.10;;;;;;;;;;4875259;28;20189;-76
2021/08/03 05:51:25;;;;;;;2.07;1.63;;;;;;;;;;4867035;28;20232;-74
2021/08/03 05:53:48;;;;;;;1.37;1.10;;;;;;;;;;4875762;28;20239;-74
2021/08/03 05:56:12;;;;;;;1.30;1.10;;;13.90;99.90;;;;;;4875518;28;20661;-78
2021/08/03 05:58:35;;;;;;;0.70;0.70;;;14.00;99.90;;;;;;4857796;28;20267;-79
2021/08/03 06:00:58;;;;;;;0.73;0.70;;;;;;;;;;4874646;28;20724;-76
2021/08/03 06:03:21;;;;;;;1.17;1.07;;;;;;;;;;4876598;28;20217;-76
2021/08/03 06:05:44;;;;;;;1.20;1.10;;;;;;;;;;4876891;28;20185;-79
2021/08/03 06:08:11;;;;;;;1.37;1.27;;;14.30;99.90;;;;;;4875884;28;20605;-78
2021/08/03 06:10:34;;;;;;;0.60;0.60;;;14.50;99.90;;;;;;4872450;28;20668;-81
2021/08/03 06:12:57;;;;;;;0.83;0.80;;;14.60;99.90;;;;;;4857134;28;20899;-77
2021/08/03 06:15:21;;;;;;;1.67;1.20;;;14.70;99.90;;;;;;4855315;28;20765;-84
2021/08/03 06:17:50;;;;;;;1.00;0.87;;;14.90;30.00;;;;;;4856858;28;20259;-82
2021/08/03 06:20:14;;;;;;;1.40;1.20;;;15.10;30.50;;;;;;4857299;28;20187;-83
2021/08/03 06:22:37;;;;;;;1.53;1.30;;;15.20;31.10;;;;;;4870133;28;20556;-83
2021/08/03 06:25:00;;;;;;;1.17;0.87;;;;;;;;;;4855195;28;20196;-85
2021/08/03 06:27:23;;;;;;;1.87;1.57;;;;;;;;;;4861792;28;20189;-82
2021/08/03 06:29:46;;;;;;;0.80;0.70;;;;;;;;;;4875558;28;20194;-84
2021/08/03 06:32:10;;;;;;;1.47;1.10;;;15.50;35.80;;;;;;4875401;28;20197;-80
2021/08/03 06:34:35;;;;;;;1.23;0.93;;;15.70;33.10;;;;;;4868805;28;20210;-72
2021/08/03 06:37:18;;;;;;;0.50;0.50;;;16.00;33.70;;;;;;4877720;28;20646;-84
2021/08/03 06:39:41;;;;;;;1.37;0.87;;;;;;;;;;4849054;28;20189;-88
2021/08/03 06:42:11;;;;;;;1.20;0.90;;;17.10;42.30;;;;;;4877550;28;20207;-77
2021/08/03 06:44:56;;;;;;;0.80;0.70;;;17.00;46.90;;;;;;4870510;28;20562;-80
2021/08/03 06:47:28;;;;;;;1.90;1.43;;;17.00;45.60;;;;;;4878340;28;20184;-82
2021/08/03 06:49:53;;;;;;;1.20;0.87;;;17.40;47.20;;;;;;4876551;28;20193;-74
2021/08/03 06:55:20;;;;;;;0.70;0.50;;;17.70;48.40;;;;;;4875905;28;20220;-87
2021/08/03 06:57:51;;;;;;;1.20;0.97;;;17.80;48.70;;;;;;4857528;28;20182;-84
2021/08/03 07:00:15;;;;;;;1.93;1.20;;;17.70;48.70;;;;;;4872850;28;20212;-86
2021/08/03 07:03:00;;;;;;;1.10;0.90;;;17.60;48.80;;;;;;4872520;28;20267;-84
2021/08/03 07:05:31;;;;;;;1.57;1.13;;;;;;;;;;4868875;28;20205;-90
2021/08/03 07:08:12;;;;;;;1.60;1.13;;;17.40;47.70;;;;;;4874245;28;20218;-89
2021/08/03 07:10:45;;;;;;;0.60;0.43;;;17.50;48.50;;;;;;4860997;28;20185;-93
2021/08/03 07:13:50;;;;;;;1.77;1.20;;;17.50;48.00;;;;;;4877662;28;20229;-83
2021/08/03 07:16:14;;;;;;;2.70;1.73;;;17.50;48.20;;;;;;4872220;28;20689;-87
2021/08/03 07:18:39;;;;;;;1.00;0.80;;;17.50;48.40;;;;;;4856611;28;20193;-81
2021/08/03 07:21:04;;;;;;;1.83;1.07;;;17.60;48.40;;;;;;4857939;28;20189;-82
2021/08/03 07:23:29;;;;;;;2.40;1.53;;;17.70;48.30;;;;;;4856519;28;20698;-89
2021/08/03 07:25:53;;;;;;;1.47;0.87;;;17.90;49.10;;;;;;4875496;28;20197;-78
2021/08/03 07:28:16;;;;;;;3.10;1.60;;;;;;;;;;4873579;28;20196;-85
2021/08/03 07:30:38;;;;;;;1.57;0.97;;;;;;;;;;4876014;28;20185;-76
2021/08/03 07:33:02;;;;;;;1.23;0.77;;;18.20;49.50;;;;;;4876318;28;20189;-84
2021/08/03 07:35:28;;;;;;;2.43;1.50;;;18.90;49.10;;;;;;4839549;28;20218;-85
2021/08/03 07:37:51;;;;;;;2.20;1.37;;;;;;;;;;4863076;28;20194;-88
2021/08/03 07:40:14;;;;;;;2.17;1.30;;;18.60;49.60;;;;;;4858608;28;20702;-89
2021/08/03 07:42:37;;;;;;;1.03;0.60;;;18.70;49.80;;;;;;4872411;28;20196;-82
2021/08/03 07:45:00;;;;;;;1.23;0.67;;;;;;;;;;4857307;28;20190;-87
2021/08/03 07:47:23;;;;;;;2.03;1.27;;;;;;;;;;4866738;28;20198;-85
2021/08/03 07:49:47;;;;;;;2.03;1.20;;;;;;;;;;4855409;28;20194;-85
2021/08/03 07:52:12;;;;;;;2.20;1.30;;;19.70;50.70;;;;;;4854667;28;20245;-82
2021/08/03 07:54:35;;;;;;;1.73;1.03;;;;;;;;;;4873692;28;20185;-83
2021/08/03 07:56:58;;;;;;;1.80;0.90;;;;;;;;;;4856272;28;20190;-78
2021/08/03 07:59:21;;;;;;;5.80;2.57;;;;;;;;;;4873444;28;20201;-77
2021/08/03 08:01:44;;;;;;;2.50;1.23;;;;;;;;;;4853669;28;20198;-82
2021/08/03 08:04:07;;;;;;;1.80;1.00;;;;;;;;;;4876408;28;20203;-88
2021/08/03 08:06:29;;;;;;;4.57;2.17;;;;;;;;;;4874047;28;20595;-83
2021/08/03 08:08:57;;;;;;;1.93;1.00;;;20.80;54.00;;;;;;4875938;28;20205;-80
2021/08/03 08:11:21;;;;;;;3.03;1.43;;;;;;;;;;4873505;28;20186;-81
2021/08/03 08:13:44;;;;;;;1.23;0.63;;;;;;;;;;4875411;28;20708;-83
2021/08/03 08:16:11;;;;;;;2.13;0.93;;;20.70;54.20;;;;;;4876132;28;20597;-84
2021/08/03 08:18:34;;;;;;;1.90;0.73;;;;;;;;;;4843134;28;20190;-84
2021/08/03 08:20:58;;;;;;;2.03;1.07;;;;;;;;;;4875361;28;20196;-85
2021/08/03 08:23:21;;;;;;;2.43;1.23;;;20.40;54.20;;;;;;4878526;28;20213;-86
2021/08/03 08:26:06;;;;;;;0.90;0.50;;;21.20;54.20;;;;;;4877389;28;20246;-87
2021/08/03 08:28:37;;;;;;;3.03;1.37;;;20.60;54.60;;;;;;4878788;28;20181;-87
2021/08/03 08:31:00;;;;;;;0.93;0.53;;;20.60;54.40;;;;;;4873641;28;20186;-91
2021/08/03 08:33:23;;;;;;;2.63;1.37;;;;;;;;;;4857092;28;20614;-79
2021/08/03 08:35:45;;;;;;;1.23;0.60;;;20.90;55.10;;;;;;4879323;28;20263;-82
2021/08/03 08:38:08;;;;;;;3.77;1.63;;;;;;;;;;4859394;28;20201;-87
2021/08/03 08:40:31;;;;;;;2.73;1.20;;;;;;;;;;4879703;28;20189;-83
2021/08/03 08:42:55;;;;;;;2.20;1.07;;;21.10;55.40;;;;;;4862037;28;20190;-86
2021/08/03 08:45:18;;;;;;;2.70;1.33;;;;;;;;;;4880512;28;20545;-87
2021/08/03 08:47:43;;;;;;;1.53;0.67;;;21.20;55.10;;;;;;4879341;28;20183;-82
2021/08/03 08:50:09;;;;;;;2.47;1.07;;;21.30;55.10;;;;;;4878238;28;20215;-90
2021/08/03 08:52:33;;;;;;;1.90;1.00;;;21.50;55.30;;;;;;4887330;28;20208;-86
2021/08/03 08:54:56;;;;;;;1.40;0.63;;;;;;;;;;4879250;28;20607;-93
2021/08/03 08:57:19;;;;;;;2.27;1.07;;;;;;;;;;4880270;28;20540;-91
2021/08/03 08:59:43;;;;;;;2.97;1.23;;;21.80;55.40;;;;;;4879759;28;20210;-88
2021/08/03 09:02:06;;;;;;;2.97;1.30;;;;;;;;;;4865761;28;20638;-85
2021/08/03 09:04:42;;;;;;;1.80;0.77;;;22.10;55.90;;;;;;4881043;28;20208;-80
2021/08/03 09:07:09;;;;;;;2.07;0.90;;;22.20;56.20;;;;;;4869231;28;20209;-87
2021/08/03 09:09:41;;;;;;;1.97;0.93;;;22.40;56.70;;;;;;4872348;28;20734;-87
2021/08/03 09:12:07;;;;;;;4.57;1.87;;;22.60;56.80;;;;;;4858968;28;20204;-88
2021/08/03 09:14:34;;;;;;;4.27;1.63;;;23.00;57.10;;;;;;4860578;28;20659;-84
2021/08/03 09:16:59;;;;;;;1.87;0.70;;;23.20;57.50;;;;;;4877956;28;20185;-78
2021/08/03 09:19:29;;;;;;;6.70;2.13;;;23.60;57.70;;;;;;4860471;28;20197;-85
2021/08/03 09:22:13;;;;;;;3.37;1.10;;;24.00;57.80;;;;;;4879306;28;20247;-91
2021/08/03 09:24:36;;;;;;;3.93;1.20;;;;;;;;;;4878110;28;20670;-89
2021/08/03 09:26:59;;;;;;;3.87;1.20;;;;;;;;;;4858372;28;20208;-84
2021/08/03 09:29:21;;;;;;;9.27;2.10;;;;;;;;;;4859055;28;20204;-79
2021/08/03 09:31:54;;;;;;;9.20;1.63;;;28.50;46.00;;;;;;4877021;28;20197;-88
2021/08/03 09:34:18;;;;;;;24.63;3.40;;;30.30;47.20;;;;;;4857033;28;20197;-87
2021/08/03 09:36:49;;;;;;;97.40;68.40;;;31.80;48.30;;;;;;4875883;28;20312;-81
2021/08/03 09:39:38;;;;;;;8.47;1.63;;;32.10;48.60;;;;;;4876655;28;20207;-84
2021/08/03 09:42:01;;;;;;;6.57;1.33;;;;;;;;;;4876988;28;20174;-82
2021/08/03 09:44:23;;;;;;;11.93;2.23;;;;;;;;;;4876338;28;20226;-87
2021/08/03 09:46:57;;;;;;;13.70;2.38;;;35.40;50.20;;;;;;4876384;28;20196;-82
2021/08/03 09:49:34;;;;;;;12.98;2.33;;;35.30;50.20;;;;;;4875673;28;20288;-86
2021/08/03 09:52:06;;;;;;;9.65;1.60;;;36.40;50.70;;;;;;4875038;28;20658;-89
2021/08/03 09:54:29;;;;;;;16.30;2.53;;;;;;;;;;4875840;28;20623;-82
2021/08/03 09:56:52;;;;;;;10.10;1.60;;;;;;;;;;4872676;28;20202;-84
2021/08/03 09:59:14;;;;;;;16.17;2.45;;;;;;;;;;4855082;28;20655;-82
2021/08/03 10:01:39;;;;;;;8.88;1.58;;;37.40;51.10;;;;;;4853913;28;20209;-83
2021/08/03 10:04:07;;;;;;;7.45;1.35;;;37.80;51.30;;;;;;4857504;28;20252;-80
2021/08/03 10:06:32;;;;;;;16.90;3.03;;;37.60;51.20;;;;;;4875566;28;20185;-85
2021/08/03 10:08:56;;;;;;;13.38;2.40;;;38.20;51.50;;;;;;4876487;28;20207;-80
2021/08/03 10:11:20;;;;;;;13.50;2.40;;;38.60;51.50;;;;;;4872754;28;20207;-79
2021/08/03 10:13:43;;;;;;;8.25;1.52;;;;;;;;;;4866388;28;20258;-83
2021/08/03 10:16:06;;;;;;;7.47;1.40;;;;;;;;;;4877659;28;20698;-78
2021/08/03 10:18:28;;;;;;;11.95;2.28;;;;;;;;;;4858683;28;20647;-88
2021/08/03 10:20:51;;;;;;;7.43;1.40;;;37.90;51.60;;;;;;4856522;28;20186;-78
2021/08/03 10:23:16;;;;;;;9.85;1.88;;;37.70;51.50;;;;;;4839205;28;20241;-84
2021/08/03 10:25:41;;;;;;;5.47;1.00;;;37.10;51.30;;;;;;4857194;28;20676;-83
2021/08/03 10:28:19;;;;;;;6.82;1.38;;;37.50;51.30;;;;;;4839364;28;20198;-81
2021/08/03 10:30:42;;;;;;;7.18;1.33;;;;;;;;;;4857774;28;20197;-78
2021/08/03 10:33:10;;;;;;;8.65;1.52;;;40.10;52.30;;;;;;4839407;28;20663;-81
2021/08/03 10:35:42;;;;;;;9.23;1.67;;;40.80;52.50;;;;;;4856947;28;20239;-76
2021/08/03 10:38:14;;;;;;;10.60;1.85;;;39.60;52.20;;;;;;4838895;28;20201;-88
2021/08/03 10:41:10;;;;;;;9.10;1.63;;;40.30;52.40;;;;;;4857446;28;20252;-84
2021/08/03 10:43:54;;;;;;;7.70;1.40;;;41.20;52.70;;;;;;4836444;28;20210;-79
2021/08/03 10:46:41;;;;;;;13.93;2.38;;;42.50;53.10;;;;;;4873279;28;20192;-84
2021/08/03 10:49:04;;;;;;;7.82;1.40;;;;;;;;;;4892240;28;20188;-87
2021/08/03 10:51:45;;;;;;;14.32;2.50;;;44.40;53.90;;;;;;4876928;28;20189;-87
2021/08/03 10:54:09;;;;;;;6.68;1.20;;;44.40;53.80;;;;;;4874014;28;20660;-87
2021/08/03 10:57:17;;;;;;;17.13;2.80;;;45.10;54.10;;;;;;4875603;28;20235;-79
2021/08/03 10:59:42;;;;;;;5.55;1.00;;;44.30;53.80;;;;;;4876835;28;20213;-87
2021/08/03 11:02:06;;;;;;;8.55;1.42;;;43.80;53.70;;;;;;4874636;28;20239;-79
2021/08/03 11:04:55;;;;;;;16.27;2.55;;;44.40;53.90;;;;;;4875779;28;20213;-78
2021/08/03 11:07:31;;;;;;;14.68;2.38;;;44.10;53.80;;;;;;4875425;28;20193;-76
2021/08/03 11:09:54;;;;;;;10.70;1.75;;;;;;;;;;4891330;28;20978;-77
2021/08/03 11:12:37;;;;;;;13.35;2.25;;;43.40;53.60;;;;;;4875943;28;20177;-76
2021/08/03 11:15:21;;;;;;;12.68;2.10;;;43.90;53.70;;;;;;4873037;28;20262;-78
2021/08/03 11:17:52;;;;;;;9.93;1.67;;;45.30;54.20;;;;;;4875264;28;20204;-86
2021/08/03 11:21:08;;;;;;;10.90;1.77;;;45.70;54.30;;;;;;4876618;28;20189;-83
2021/08/03 11:24:11;;;;;;;9.73;1.63;;;46.10;54.50;;;;;;4857963;28;20878;-78
2021/08/03 11:26:37;;;;;;;19.30;3.17;;;46.30;54.70;;;;;;4874359;28;20216;-78
2021/08/03 11:36:13;;;;;;;7.60;1.40;;;39.50;52.40;;;;;;4868880;28;20212;-81
2021/08/03 11:38:36;;;;;;;7.22;1.25;;;;;;;;;;4856827;28;20193;-78
2021/08/03 11:40:59;;;;;;;6.47;1.10;;;;;;;;;;4874868;28;20197;-78
2021/08/03 11:43:26;;;;;;;11.00;1.88;;;42.50;53.30;;;;;;4857939;28;20714;-88
2021/08/03 11:45:49;;;;;;;9.07;1.48;;;;;;;;;;4858508;28;20225;-83
2021/08/03 11:48:18;;;;;;;8.02;1.40;;;45.00;54.30;;;;;;4874885;28;20848;-82
2021/08/03 11:50:41;;;;;;;9.48;1.58;;;;;;;;;;4875707;28;20193;-83
2021/08/03 11:53:09;;;;;;;7.32;1.20;;;45.30;54.30;;;;;;4877263;28;20185;-79
2021/08/03 11:55:33;;;;;;;10.40;1.75;;;;;;;;;;4876873;28;20189;-82
2021/08/03 11:57:57;;;;;;;10.18;1.73;;;;;;;;;;4858069;28;20259;-83
2021/08/03 12:00:22;;;;;;;9.90;1.63;;;45.80;54.50;;;;;;4873646;28;20270;-84
2021/08/03 12:02:47;;;;;;;9.25;1.50;;;47.20;55.00;;;;;;4876045;28;20635;-81
2021/08/03 12:05:13;;;;;;;8.02;1.30;;;47.30;55.00;;;;;;4876475;28;20296;-85
2021/08/03 12:07:36;;;;;;;15.27;2.40;;;47.60;55.10;;;;;;4874949;28;20220;-87
2021/08/03 12:10:00;;;;;;;7.93;1.33;;;48.30;55.30;;;;;;4879458;28;21099;-85
2021/08/03 12:12:23;;;;;;;13.23;2.10;;;;;;;;;;4878333;28;20592;-84
2021/08/03 12:14:45;;;;;;;10.23;1.65;;;;;;;;;;4878970;28;20268;-81
2021/08/03 12:17:25;;;;;;;7.95;1.33;;;49.50;55.80;;;;;;4894643;28;20204;-82
2021/08/03 12:19:48;;;;;;;9.23;1.42;;;;;;;;;;4878810;28;20577;-75
2021/08/03 12:22:25;;;;;;;8.25;1.33;;;50.10;56.00;;;;;;4879431;28;20294;-89
2021/08/03 12:24:55;;;;;;;7.47;1.20;;;50.30;56.00;;;;;;4862477;28;20819;-79
2021/08/03 12:27:19;;;;;;;14.15;2.22;;;50.10;56.00;;;;;;4859223;28;20231;-83
2021/08/03 12:29:42;;;;;;;19.70;2.83;;;;;;;;;;4859740;28;20185;-86
2021/08/03 12:32:06;;;;;;;12.05;1.73;;;48.70;55.50;;;;;;4859831;28;20186;-87
2021/08/03 12:34:36;;;;;;;19.15;2.72;;;49.10;55.60;;;;;;4859749;28;20259;-80
2021/08/03 12:36:59;;;;;;;8.60;1.35;;;;;;;;;;4859828;28;20201;-81
2021/08/03 12:39:25;;;;;;;12.60;1.98;;;45.90;54.70;;;;;;4870349;28;20590;-79
2021/08/03 12:42:10;;;;;;;10.45;1.60;;;44.50;54.10;;;;;;4877758;28;20247;-81
2021/08/03 12:44:36;;;;;;;16.05;2.35;;;45.10;54.40;;;;;;4861048;28;20209;-81
2021/08/03 12:47:07;;;;;;;8.77;1.35;;;44.90;54.40;;;;;;4878748;28;20694;-80
2021/08/03 12:49:34;;;;;;;13.48;1.95;;;42.90;53.70;;;;;;4878211;28;20541;-80
2021/08/03 12:52:06;;;;;;;18.77;2.72;;;43.10;53.60;;;;;;4877746;28;20231;-83
2021/08/03 12:54:30;;;;;;;13.35;2.03;;;;;;;;;;4877842;28;20566;-83
2021/08/03 12:56:54;;;;;;;9.90;1.52;;;42.20;53.50;;;;;;4878250;28;20445;-83
2021/08/03 12:59:37;;;;;;;14.82;2.20;;;43.20;53.70;;;;;;4878937;28;21112;-78
2021/08/03 13:02:00;;;;;;;10.25;1.67;;;;;;;;;;4876678;28;20197;-81
2021/08/03 13:04:22;;;;;;;12.48;1.92;;;;;;;;;;4878316;28;20181;-76
2021/08/03 13:06:52;;;;;;;31.75;4.65;;;41.00;53.00;;;;;;4878066;28;20238;-86
2021/08/03 13:09:15;;;;;;;13.10;2.03;;;;;;;;;;4861617;28;20198;-80
2021/08/03 13:11:37;;;;;;;16.00;2.50;;;;;;;;;;4876111;28;20201;-88
2021/08/03 13:14:00;;;;;;;9.13;1.45;;;;;;;;;;4873281;28;20237;-81
2021/08/03 13:16:24;;;;;;;17.40;2.70;;;36.80;51.50;;;;;;4858524;28;20256;-83
2021/08/03 13:18:47;;;;;;;13.15;2.03;;;;;;;;;;4874184;28;20200;-79
2021/08/03 13:21:09;;;;;;;11.05;1.80;;;;;;;;;;4872748;28;20213;-82
2021/08/03 13:23:32;;;;;;;10.38;1.80;;;;;;;;;;4858489;28;20186;-87
2021/08/03 13:25:55;;;;;;;12.27;2.00;;;;;;;;;;4857768;28;20595;-81
2021/08/03 13:28:18;;;;;;;16.30;2.58;;;;;;;;;;4857630;28;20224;-76
2021/08/03 13:30:41;;;;;;;9.65;1.58;;;;;;;;;;4856663;28;20259;-79
2021/08/03 13:33:05;;;;;;;9.98;1.60;;;41.30;53.00;;;;;;4858221;28;20190;-82
2021/08/03 13:35:28;;;;;;;16.20;2.63;;;;;;;;;;4857142;28;20210;-79
2021/08/03 13:37:50;;;;;;;10.55;1.73;;;;;;;;;;4858776;28;20251;-78